sensor_id;sensor_type;location;lat;lon;timestamp;P1;durP1;ratioP1;P2;durP2;ratioP2
58992;SDS011;44782;0.000;0.000;2023-03-17T00:00:41;2.73;;;2.53;;
58992;SDS011;44782;0.000;0.000;2023-03-17T00:02:59;2.60;;;2.40;;
58992;SDS011;44782;0.000;0.000;2023-03-17T00:05:16;2.57;;;2.37;;
58992;SDS011;44782;0.000;0.000;2023-03-17T00:07:37;3.17;;;2.87;;
58992;SDS011;44782;0.000;0.000;2023-03-17T00:09:52;3.23;;;2.70;;
58992;SDS011;44782;0.000;0.000;2023-03-17T00:12:08;2.77;;;2.57;;
58992;SDS011;44782;0.000;0.000;2023-03-17T00:14:25;3.33;;;2.80;;
58992;SDS011;44782;0.000;0.000;2023-03-17T00:16:42;2.77;;;2.57;;
58992;SDS011;44782;0.000;0.000;2023-03-17T00:18:59;2.70;;;2.50;;
58992;SDS011;44782;0.000;0.000;2023-03-17T00:21:17;2.67;;;2.47;;
58992;SDS011;44782;0.000;0.000;2023-03-17T00:23:47;2.80;;;2.60;;
58992;SDS011;44782;0.000;0.000;2023-03-17T00:26:05;2.60;;;2.40;;
58992;SDS011;44782;0.000;0.000;2023-03-17T00:28:22;2.90;;;2.60;;
58992;SDS011;44782;0.000;0.000;2023-03-17T00:30:42;2.60;;;2.40;;
58992;SDS011;44782;0.000;0.000;2023-03-17T00:32:58;2.93;;;2.73;;
58992;SDS011;44782;0.000;0.000;2023-03-17T00:35:19;3.00;;;2.80;;
58992;SDS011;44782;0.000;0.000;2023-03-17T00:37:37;2.70;;;2.50;;
58992;SDS011;44782;0.000;0.000;2023-03-17T00:39:53;3.10;;;2.90;;
58992;SDS011;44782;0.000;0.000;2023-03-17T00:42:10;2.90;;;2.60;;
58992;SDS011;44782;0.000;0.000;2023-03-17T00:44:26;3.03;;;2.70;;
58992;SDS011;44782;0.000;0.000;2023-03-17T00:46:41;2.77;;;2.57;;
58992;SDS011;44782;0.000;0.000;2023-03-17T00:48:57;3.17;;;2.87;;
58992;SDS011;44782;0.000;0.000;2023-03-17T00:51:13;2.93;;;2.73;;
58992;SDS011;44782;0.000;0.000;2023-03-17T00:53:30;3.13;;;2.83;;
58992;SDS011;44782;0.000;0.000;2023-03-17T00:55:46;3.30;;;3.00;;
58992;SDS011;44782;0.000;0.000;2023-03-17T00:58:08;3.20;;;2.90;;
58992;SDS011;44782;0.000;0.000;2023-03-17T01:00:31;2.90;;;2.70;;
58992;SDS011;44782;0.000;0.000;2023-03-17T01:02:46;3.13;;;2.83;;
58992;SDS011;44782;0.000;0.000;2023-03-17T01:05:03;3.10;;;2.80;;
58992;SDS011;44782;0.000;0.000;2023-03-17T01:07:21;2.73;;;2.53;;
58992;SDS011;44782;0.000;0.000;2023-03-17T01:09:36;3.00;;;2.80;;
58992;SDS011;44782;0.000;0.000;2023-03-17T01:11:52;2.90;;;2.70;;
58992;SDS011;44782;0.000;0.000;2023-03-17T01:14:10;3.30;;;3.00;;
58992;SDS011;44782;0.000;0.000;2023-03-17T01:16:26;2.77;;;2.57;;
58992;SDS011;44782;0.000;0.000;2023-03-17T01:18:42;2.80;;;2.60;;
58992;SDS011;44782;0.000;0.000;2023-03-17T01:20:59;2.90;;;2.70;;
58992;SDS011;44782;0.000;0.000;2023-03-17T01:23:14;2.90;;;2.70;;
58992;SDS011;44782;0.000;0.000;2023-03-17T01:25:31;2.60;;;2.40;;
58992;SDS011;44782;0.000;0.000;2023-03-17T01:27:47;3.07;;;2.87;;
58992;SDS011;44782;0.000;0.000;2023-03-17T01:30:04;2.63;;;2.43;;
58992;SDS011;44782;0.000;0.000;2023-03-17T01:32:20;2.77;;;2.53;;
58992;SDS011;44782;0.000;0.000;2023-03-17T01:34:36;2.70;;;2.50;;
58992;SDS011;44782;0.000;0.000;2023-03-17T01:36:51;3.27;;;2.83;;
58992;SDS011;44782;0.000;0.000;2023-03-17T01:39:07;3.03;;;2.80;;
58992;SDS011;44782;0.000;0.000;2023-03-17T01:41:23;3.07;;;2.87;;
58992;SDS011;44782;0.000;0.000;2023-03-17T01:43:39;2.83;;;2.57;;
58992;SDS011;44782;0.000;0.000;2023-03-17T01:46:15;2.80;;;2.60;;
58992;SDS011;44782;0.000;0.000;2023-03-17T01:54:00;2.57;;;2.37;;
58992;SDS011;44782;0.000;0.000;2023-03-17T01:56:20;3.00;;;2.70;;
58992;SDS011;44782;0.000;0.000;2023-03-17T01:58:37;3.10;;;2.90;;
58992;SDS011;44782;0.000;0.000;2023-03-17T02:00:53;2.73;;;2.53;;
58992;SDS011;44782;0.000;0.000;2023-03-17T02:03:10;2.60;;;2.40;;
58992;SDS011;44782;0.000;0.000;2023-03-17T02:05:26;2.73;;;2.53;;
58992;SDS011;44782;0.000;0.000;2023-03-17T02:10:10;2.80;;;2.60;;
58992;SDS011;44782;0.000;0.000;2023-03-17T02:12:28;2.70;;;2.50;;
58992;SDS011;44782;0.000;0.000;2023-03-17T02:14:44;2.70;;;2.50;;
58992;SDS011;44782;0.000;0.000;2023-03-17T02:17:00;2.83;;;2.60;;
58992;SDS011;44782;0.000;0.000;2023-03-17T02:19:16;2.70;;;2.50;;
58992;SDS011;44782;0.000;0.000;2023-03-17T02:21:34;3.27;;;2.97;;
58992;SDS011;44782;0.000;0.000;2023-03-17T02:23:51;2.80;;;2.60;;
58992;SDS011;44782;0.000;0.000;2023-03-17T02:26:07;2.83;;;2.63;;
58992;SDS011;44782;0.000;0.000;2023-03-17T02:28:24;2.73;;;2.53;;
58992;SDS011;44782;0.000;0.000;2023-03-17T02:30:44;3.03;;;2.73;;
58992;SDS011;44782;0.000;0.000;2023-03-17T02:33:00;2.80;;;2.60;;
58992;SDS011;44782;0.000;0.000;2023-03-17T02:35:17;2.60;;;2.40;;
58992;SDS011;44782;0.000;0.000;2023-03-17T02:37:34;2.70;;;2.50;;
58992;SDS011;44782;0.000;0.000;2023-03-17T02:39:50;2.67;;;2.47;;
58992;SDS011;44782;0.000;0.000;2023-03-17T02:42:05;2.60;;;2.40;;
58992;SDS011;44782;0.000;0.000;2023-03-17T02:44:22;2.70;;;2.50;;
58992;SDS011;44782;0.000;0.000;2023-03-17T02:46:38;2.60;;;2.40;;
58992;SDS011;44782;0.000;0.000;2023-03-17T02:48:53;2.90;;;2.70;;
58992;SDS011;44782;0.000;0.000;2023-03-17T02:51:11;2.70;;;2.50;;
58992;SDS011;44782;0.000;0.000;2023-03-17T02:53:27;2.80;;;2.60;;
58992;SDS011;44782;0.000;0.000;2023-03-17T02:55:42;2.80;;;2.60;;
58992;SDS011;44782;0.000;0.000;2023-03-17T02:57:58;2.70;;;2.50;;
58992;SDS011;44782;0.000;0.000;2023-03-17T03:00:17;2.70;;;2.50;;
58992;SDS011;44782;0.000;0.000;2023-03-17T03:02:33;3.10;;;2.63;;
58992;SDS011;44782;0.000;0.000;2023-03-17T03:04:52;2.50;;;2.30;;
58992;SDS011;44782;0.000;0.000;2023-03-17T03:07:08;2.80;;;2.60;;
58992;SDS011;44782;0.000;0.000;2023-03-17T03:09:24;2.83;;;2.63;;
58992;SDS011;44782;0.000;0.000;2023-03-17T03:11:42;2.70;;;2.50;;
58992;SDS011;44782;0.000;0.000;2023-03-17T03:13:58;2.70;;;2.50;;
58992;SDS011;44782;0.000;0.000;2023-03-17T03:16:14;2.70;;;2.30;;
58992;SDS011;44782;0.000;0.000;2023-03-17T03:18:30;2.63;;;2.43;;
58992;SDS011;44782;0.000;0.000;2023-03-17T03:20:46;2.73;;;2.53;;
58992;SDS011;44782;0.000;0.000;2023-03-17T03:23:02;2.53;;;2.33;;
58992;SDS011;44782;0.000;0.000;2023-03-17T03:25:18;2.50;;;2.30;;
58992;SDS011;44782;0.000;0.000;2023-03-17T03:27:34;2.60;;;2.40;;
58992;SDS011;44782;0.000;0.000;2023-03-17T03:29:50;2.63;;;2.43;;
58992;SDS011;44782;0.000;0.000;2023-03-17T03:32:05;2.73;;;2.53;;
58992;SDS011;44782;0.000;0.000;2023-03-17T03:34:22;2.80;;;2.60;;
58992;SDS011;44782;0.000;0.000;2023-03-17T03:36:37;2.37;;;2.17;;
58992;SDS011;44782;0.000;0.000;2023-03-17T03:38:53;2.67;;;2.47;;
58992;SDS011;44782;0.000;0.000;2023-03-17T03:41:09;2.63;;;2.43;;
58992;SDS011;44782;0.000;0.000;2023-03-17T03:43:25;2.70;;;2.50;;
58992;SDS011;44782;0.000;0.000;2023-03-17T03:45:41;2.80;;;2.50;;
58992;SDS011;44782;0.000;0.000;2023-03-17T03:47:56;2.63;;;2.43;;
58992;SDS011;44782;0.000;0.000;2023-03-17T03:50:12;2.63;;;2.43;;
58992;SDS011;44782;0.000;0.000;2023-03-17T03:52:28;2.67;;;2.47;;
58992;SDS011;44782;0.000;0.000;2023-03-17T03:54:43;2.67;;;2.40;;
58992;SDS011;44782;0.000;0.000;2023-03-17T03:56:59;2.30;;;2.20;;
58992;SDS011;44782;0.000;0.000;2023-03-17T03:59:15;2.50;;;2.30;;
58992;SDS011;44782;0.000;0.000;2023-03-17T04:01:31;2.63;;;2.43;;
58992;SDS011;44782;0.000;0.000;2023-03-17T04:03:47;2.43;;;2.23;;
58992;SDS011;44782;0.000;0.000;2023-03-17T04:06:02;2.57;;;2.37;;
58992;SDS011;44782;0.000;0.000;2023-03-17T04:08:18;2.53;;;2.33;;
58992;SDS011;44782;0.000;0.000;2023-03-17T04:10:34;2.53;;;2.33;;
58992;SDS011;44782;0.000;0.000;2023-03-17T04:12:50;2.70;;;2.50;;
58992;SDS011;44782;0.000;0.000;2023-03-17T04:15:06;2.60;;;2.40;;
58992;SDS011;44782;0.000;0.000;2023-03-17T04:17:23;2.53;;;2.33;;
58992;SDS011;44782;0.000;0.000;2023-03-17T04:19:38;2.70;;;2.50;;
58992;SDS011;44782;0.000;0.000;2023-03-17T04:21:54;2.53;;;2.33;;
58992;SDS011;44782;0.000;0.000;2023-03-17T04:24:10;2.70;;;2.50;;
58992;SDS011;44782;0.000;0.000;2023-03-17T04:26:26;2.60;;;2.40;;
58992;SDS011;44782;0.000;0.000;2023-03-17T04:28:42;3.27;;;2.53;;
58992;SDS011;44782;0.000;0.000;2023-03-17T04:30:57;2.40;;;2.20;;
58992;SDS011;44782;0.000;0.000;2023-03-17T04:33:13;2.63;;;2.43;;
58992;SDS011;44782;0.000;0.000;2023-03-17T04:35:28;2.60;;;2.40;;
58992;SDS011;44782;0.000;0.000;2023-03-17T04:37:44;2.57;;;2.40;;
58992;SDS011;44782;0.000;0.000;2023-03-17T04:40:00;2.87;;;2.67;;
58992;SDS011;44782;0.000;0.000;2023-03-17T04:42:16;2.47;;;2.30;;
58992;SDS011;44782;0.000;0.000;2023-03-17T04:44:32;2.43;;;2.23;;
58992;SDS011;44782;0.000;0.000;2023-03-17T04:46:48;2.80;;;2.60;;
58992;SDS011;44782;0.000;0.000;2023-03-17T04:49:04;2.73;;;2.53;;
58992;SDS011;44782;0.000;0.000;2023-03-17T04:51:19;2.50;;;2.30;;
58992;SDS011;44782;0.000;0.000;2023-03-17T04:53:35;2.67;;;2.47;;
58992;SDS011;44782;0.000;0.000;2023-03-17T04:55:51;2.57;;;2.37;;
58992;SDS011;44782;0.000;0.000;2023-03-17T04:58:07;2.60;;;2.40;;
58992;SDS011;44782;0.000;0.000;2023-03-17T05:00:22;2.77;;;2.57;;
58992;SDS011;44782;0.000;0.000;2023-03-17T05:02:38;2.50;;;2.30;;
58992;SDS011;44782;0.000;0.000;2023-03-17T05:04:54;2.50;;;2.30;;
58992;SDS011;44782;0.000;0.000;2023-03-17T05:07:12;2.67;;;2.47;;
58992;SDS011;44782;0.000;0.000;2023-03-17T05:09:28;2.80;;;2.60;;
58992;SDS011;44782;0.000;0.000;2023-03-17T05:11:44;2.43;;;2.23;;
58992;SDS011;44782;0.000;0.000;2023-03-17T05:13:59;2.20;;;2.10;;
58992;SDS011;44782;0.000;0.000;2023-03-17T05:16:15;2.43;;;2.23;;
58992;SDS011;44782;0.000;0.000;2023-03-17T05:18:30;2.67;;;2.47;;
58992;SDS011;44782;0.000;0.000;2023-03-17T05:20:46;2.63;;;2.43;;
58992;SDS011;44782;0.000;0.000;2023-03-17T05:23:02;2.50;;;2.30;;
58992;SDS011;44782;0.000;0.000;2023-03-17T05:25:17;2.60;;;2.40;;
58992;SDS011;44782;0.000;0.000;2023-03-17T05:27:33;2.73;;;2.53;;
58992;SDS011;44782;0.000;0.000;2023-03-17T05:29:49;2.77;;;2.57;;
58992;SDS011;44782;0.000;0.000;2023-03-17T05:32:05;2.73;;;2.53;;
58992;SDS011;44782;0.000;0.000;2023-03-17T05:34:20;2.80;;;2.60;;
58992;SDS011;44782;0.000;0.000;2023-03-17T05:36:36;2.70;;;2.50;;
58992;SDS011;44782;0.000;0.000;2023-03-17T05:38:52;2.73;;;2.53;;
58992;SDS011;44782;0.000;0.000;2023-03-17T05:41:07;2.80;;;2.60;;
58992;SDS011;44782;0.000;0.000;2023-03-17T05:43:24;2.70;;;2.50;;
58992;SDS011;44782;0.000;0.000;2023-03-17T05:45:40;2.90;;;2.70;;
58992;SDS011;44782;0.000;0.000;2023-03-17T05:47:56;2.70;;;2.50;;
58992;SDS011;44782;0.000;0.000;2023-03-17T05:50:12;2.70;;;2.50;;
58992;SDS011;44782;0.000;0.000;2023-03-17T05:52:27;3.00;;;2.70;;
58992;SDS011;44782;0.000;0.000;2023-03-17T05:54:43;2.70;;;2.50;;
58992;SDS011;44782;0.000;0.000;2023-03-17T05:57:01;3.23;;;2.93;;
58992;SDS011;44782;0.000;0.000;2023-03-17T05:59:17;2.87;;;2.67;;
58992;SDS011;44782;0.000;0.000;2023-03-17T06:01:33;3.00;;;2.70;;
58992;SDS011;44782;0.000;0.000;2023-03-17T06:03:49;2.77;;;2.57;;
58992;SDS011;44782;0.000;0.000;2023-03-17T06:06:04;3.00;;;2.70;;
58992;SDS011;44782;0.000;0.000;2023-03-17T06:08:20;2.67;;;2.47;;
58992;SDS011;44782;0.000;0.000;2023-03-17T06:10:36;2.63;;;2.43;;
58992;SDS011;44782;0.000;0.000;2023-03-17T06:12:51;3.00;;;2.80;;
58992;SDS011;44782;0.000;0.000;2023-03-17T06:15:08;3.30;;;2.57;;
58992;SDS011;44782;0.000;0.000;2023-03-17T06:17:24;2.60;;;2.40;;
58992;SDS011;44782;0.000;0.000;2023-03-17T06:19:40;3.00;;;2.80;;
58992;SDS011;44782;0.000;0.000;2023-03-17T06:21:56;2.80;;;2.60;;
58992;SDS011;44782;0.000;0.000;2023-03-17T06:24:11;2.63;;;2.43;;
58992;SDS011;44782;0.000;0.000;2023-03-17T06:26:27;2.80;;;2.60;;
58992;SDS011;44782;0.000;0.000;2023-03-17T06:28:43;3.00;;;2.80;;
58992;SDS011;44782;0.000;0.000;2023-03-17T06:30:58;2.97;;;2.77;;
58992;SDS011;44782;0.000;0.000;2023-03-17T06:33:14;2.93;;;2.73;;
58992;SDS011;44782;0.000;0.000;2023-03-17T06:35:32;2.90;;;2.70;;
58992;SDS011;44782;0.000;0.000;2023-03-17T06:37:48;2.93;;;2.73;;
58992;SDS011;44782;0.000;0.000;2023-03-17T06:40:04;3.07;;;2.87;;
58992;SDS011;44782;0.000;0.000;2023-03-17T06:42:23;2.80;;;2.60;;
58992;SDS011;44782;0.000;0.000;2023-03-17T06:44:38;3.20;;;2.80;;
58992;SDS011;44782;0.000;0.000;2023-03-17T06:46:55;2.83;;;2.63;;
58992;SDS011;44782;0.000;0.000;2023-03-17T06:49:11;2.80;;;2.60;;
58992;SDS011;44782;0.000;0.000;2023-03-17T06:51:27;3.10;;;2.90;;
58992;SDS011;44782;0.000;0.000;2023-03-17T06:53:43;3.00;;;2.80;;
58992;SDS011;44782;0.000;0.000;2023-03-17T06:55:59;2.90;;;2.70;;
58992;SDS011;44782;0.000;0.000;2023-03-17T06:58:14;3.17;;;2.90;;
58992;SDS011;44782;0.000;0.000;2023-03-17T07:00:30;3.00;;;2.80;;
58992;SDS011;44782;0.000;0.000;2023-03-17T07:02:47;2.93;;;2.73;;
58992;SDS011;44782;0.000;0.000;2023-03-17T07:05:03;3.37;;;3.07;;
58992;SDS011;44782;0.000;0.000;2023-03-17T07:07:20;3.23;;;2.80;;
58992;SDS011;44782;0.000;0.000;2023-03-17T07:09:35;3.63;;;3.10;;
58992;SDS011;44782;0.000;0.000;2023-03-17T07:11:51;3.13;;;2.70;;
58992;SDS011;44782;0.000;0.000;2023-03-17T07:14:07;3.57;;;2.90;;
58992;SDS011;44782;0.000;0.000;2023-03-17T07:16:26;3.53;;;2.73;;
58992;SDS011;44782;0.000;0.000;2023-03-17T07:18:42;3.00;;;2.70;;
58992;SDS011;44782;0.000;0.000;2023-03-17T07:20:59;3.47;;;2.70;;
58992;SDS011;44782;0.000;0.000;2023-03-17T07:23:19;2.80;;;2.60;;
58992;SDS011;44782;0.000;0.000;2023-03-17T07:25:36;2.50;;;2.30;;
58992;SDS011;44782;0.000;0.000;2023-03-17T07:27:53;2.90;;;2.70;;
58992;SDS011;44782;0.000;0.000;2023-03-17T07:30:09;3.27;;;3.00;;
58992;SDS011;44782;0.000;0.000;2023-03-17T07:32:26;3.83;;;3.17;;
58992;SDS011;44782;0.000;0.000;2023-03-17T07:34:42;2.80;;;2.60;;
58992;SDS011;44782;0.000;0.000;2023-03-17T07:36:58;4.23;;;3.00;;
58992;SDS011;44782;0.000;0.000;2023-03-17T07:39:13;3.93;;;2.70;;
58992;SDS011;44782;0.000;0.000;2023-03-17T07:41:29;2.93;;;2.60;;
58992;SDS011;44782;0.000;0.000;2023-03-17T07:43:45;3.17;;;2.70;;
58992;SDS011;44782;0.000;0.000;2023-03-17T07:46:00;3.40;;;3.00;;
58992;SDS011;44782;0.000;0.000;2023-03-17T07:48:17;3.30;;;2.70;;
58992;SDS011;44782;0.000;0.000;2023-03-17T07:50:33;4.63;;;2.80;;
58992;SDS011;44782;0.000;0.000;2023-03-17T07:52:50;2.90;;;2.70;;
58992;SDS011;44782;0.000;0.000;2023-03-17T07:55:05;3.37;;;3.03;;
58992;SDS011;44782;0.000;0.000;2023-03-17T07:57:24;2.87;;;2.57;;
58992;SDS011;44782;0.000;0.000;2023-03-17T07:59:41;3.20;;;2.80;;
58992;SDS011;44782;0.000;0.000;2023-03-17T08:01:56;2.60;;;2.40;;
58992;SDS011;44782;0.000;0.000;2023-03-17T08:04:14;3.90;;;2.60;;
58992;SDS011;44782;0.000;0.000;2023-03-17T08:06:29;2.70;;;2.50;;
58992;SDS011;44782;0.000;0.000;2023-03-17T08:08:46;2.60;;;2.40;;
58992;SDS011;44782;0.000;0.000;2023-03-17T08:11:03;2.70;;;2.50;;
58992;SDS011;44782;0.000;0.000;2023-03-17T08:13:19;2.83;;;2.53;;
58992;SDS011;44782;0.000;0.000;2023-03-17T08:15:35;2.40;;;2.20;;
58992;SDS011;44782;0.000;0.000;2023-03-17T08:17:50;3.13;;;2.40;;
58992;SDS011;44782;0.000;0.000;2023-03-17T08:20:06;3.13;;;2.60;;
58992;SDS011;44782;0.000;0.000;2023-03-17T08:22:22;2.20;;;2.00;;
58992;SDS011;44782;0.000;0.000;2023-03-17T08:24:38;2.60;;;2.40;;
58992;SDS011;44782;0.000;0.000;2023-03-17T08:26:57;3.40;;;2.67;;
58992;SDS011;44782;0.000;0.000;2023-03-17T08:29:12;2.60;;;2.40;;
58992;SDS011;44782;0.000;0.000;2023-03-17T08:31:29;2.90;;;2.60;;
58992;SDS011;44782;0.000;0.000;2023-03-17T08:33:48;2.80;;;2.50;;
58992;SDS011;44782;0.000;0.000;2023-03-17T08:36:06;2.90;;;2.47;;
58992;SDS011;44782;0.000;0.000;2023-03-17T08:38:23;2.67;;;2.40;;
58992;SDS011;44782;0.000;0.000;2023-03-17T08:40:39;2.30;;;2.10;;
58992;SDS011;44782;0.000;0.000;2023-03-17T08:42:55;3.17;;;2.40;;
58992;SDS011;44782;0.000;0.000;2023-03-17T08:45:10;2.70;;;2.33;;
58992;SDS011;44782;0.000;0.000;2023-03-17T08:47:27;2.60;;;2.40;;
58992;SDS011;44782;0.000;0.000;2023-03-17T08:49:43;2.50;;;2.30;;
58992;SDS011;44782;0.000;0.000;2023-03-17T08:51:59;2.47;;;2.27;;
58992;SDS011;44782;0.000;0.000;2023-03-17T08:54:16;2.60;;;2.40;;
58992;SDS011;44782;0.000;0.000;2023-03-17T08:56:32;2.40;;;2.20;;
58992;SDS011;44782;0.000;0.000;2023-03-17T08:58:49;2.93;;;2.17;;
58992;SDS011;44782;0.000;0.000;2023-03-17T09:01:05;2.43;;;2.23;;
58992;SDS011;44782;0.000;0.000;2023-03-17T09:03:21;2.60;;;2.40;;
58992;SDS011;44782;0.000;0.000;2023-03-17T09:05:37;2.50;;;2.23;;
58992;SDS011;44782;0.000;0.000;2023-03-17T09:07:53;2.53;;;2.10;;
58992;SDS011;44782;0.000;0.000;2023-03-17T09:10:08;2.77;;;2.30;;
58992;SDS011;44782;0.000;0.000;2023-03-17T09:12:25;2.80;;;2.33;;
58992;SDS011;44782;0.000;0.000;2023-03-17T09:14:40;2.43;;;2.20;;
58992;SDS011;44782;0.000;0.000;2023-03-17T09:16:56;2.50;;;2.27;;
58992;SDS011;44782;0.000;0.000;2023-03-17T09:19:12;2.43;;;2.23;;
58992;SDS011;44782;0.000;0.000;2023-03-17T09:21:28;2.67;;;2.20;;
58992;SDS011;44782;0.000;0.000;2023-03-17T09:23:43;2.27;;;2.07;;
58992;SDS011;44782;0.000;0.000;2023-03-17T09:26:00;2.40;;;2.20;;
58992;SDS011;44782;0.000;0.000;2023-03-17T09:28:17;2.50;;;2.30;;
58992;SDS011;44782;0.000;0.000;2023-03-17T09:30:33;2.50;;;2.30;;
58992;SDS011;44782;0.000;0.000;2023-03-17T09:32:49;2.43;;;2.23;;
58992;SDS011;44782;0.000;0.000;2023-03-17T09:35:05;3.17;;;2.20;;
58992;SDS011;44782;0.000;0.000;2023-03-17T09:37:21;2.30;;;2.10;;
58992;SDS011;44782;0.000;0.000;2023-03-17T09:39:36;2.10;;;1.90;;
58992;SDS011;44782;0.000;0.000;2023-03-17T09:42:13;2.17;;;2.00;;
58992;SDS011;44782;0.000;0.000;2023-03-17T09:47:14;2.80;;;2.40;;
58992;SDS011;44782;0.000;0.000;2023-03-17T09:49:50;2.30;;;2.10;;
58992;SDS011;44782;0.000;0.000;2023-03-17T09:52:16;2.60;;;2.23;;
58992;SDS011;44782;0.000;0.000;2023-03-17T09:54:37;2.03;;;1.87;;
58992;SDS011;44782;0.000;0.000;2023-03-17T09:56:56;2.33;;;2.13;;
58992;SDS011;44782;0.000;0.000;2023-03-17T09:59:33;2.10;;;1.90;;
58992;SDS011;44782;0.000;0.000;2023-03-17T10:01:52;2.27;;;2.03;;
58992;SDS011;44782;0.000;0.000;2023-03-17T10:04:09;2.43;;;2.20;;
58992;SDS011;44782;0.000;0.000;2023-03-17T10:06:35;2.30;;;2.10;;
58992;SDS011;44782;0.000;0.000;2023-03-17T10:11:40;2.37;;;2.17;;
58992;SDS011;44782;0.000;0.000;2023-03-17T10:14:00;2.20;;;2.00;;
58992;SDS011;44782;0.000;0.000;2023-03-17T10:16:17;3.57;;;1.97;;
58992;SDS011;44782;0.000;0.000;2023-03-17T10:18:54;2.87;;;2.10;;
58992;SDS011;44782;0.000;0.000;2023-03-17T10:21:16;2.13;;;1.93;;
58992;SDS011;44782;0.000;0.000;2023-03-17T10:23:36;2.33;;;2.13;;
58992;SDS011;44782;0.000;0.000;2023-03-17T10:25:52;2.20;;;2.00;;
58992;SDS011;44782;0.000;0.000;2023-03-17T10:28:27;2.27;;;2.07;;
58992;SDS011;44782;0.000;0.000;2023-03-17T10:30:45;2.23;;;1.90;;
58992;SDS011;44782;0.000;0.000;2023-03-17T10:33:01;4.43;;;2.03;;
58992;SDS011;44782;0.000;0.000;2023-03-17T10:35:21;2.13;;;1.93;;
58992;SDS011;44782;0.000;0.000;2023-03-17T10:37:37;1.97;;;1.80;;
58992;SDS011;44782;0.000;0.000;2023-03-17T10:39:55;2.03;;;1.93;;
58992;SDS011;44782;0.000;0.000;2023-03-17T10:42:12;1.80;;;1.70;;
58992;SDS011;44782;0.000;0.000;2023-03-17T10:44:42;3.10;;;2.10;;
58992;SDS011;44782;0.000;0.000;2023-03-17T10:47:02;1.90;;;1.80;;
58992;SDS011;44782;0.000;0.000;2023-03-17T10:49:18;2.10;;;1.80;;
58992;SDS011;44782;0.000;0.000;2023-03-17T10:51:37;1.60;;;1.50;;
58992;SDS011;44782;0.000;0.000;2023-03-17T10:53:54;1.80;;;1.70;;
58992;SDS011;44782;0.000;0.000;2023-03-17T10:56:32;2.83;;;1.60;;
58992;SDS011;44782;0.000;0.000;2023-03-17T10:58:51;3.00;;;1.87;;
58992;SDS011;44782;0.000;0.000;2023-03-17T11:01:16;2.03;;;1.83;;
58992;SDS011;44782;0.000;0.000;2023-03-17T11:03:50;2.50;;;1.90;;
58992;SDS011;44782;0.000;0.000;2023-03-17T11:06:10;2.60;;;1.83;;
58992;SDS011;44782;0.000;0.000;2023-03-17T11:08:31;3.23;;;1.80;;
58992;SDS011;44782;0.000;0.000;2023-03-17T11:10:53;2.10;;;1.90;;
58992;SDS011;44782;0.000;0.000;2023-03-17T11:13:16;2.00;;;1.67;;
58992;SDS011;44782;0.000;0.000;2023-03-17T11:15:32;1.83;;;1.60;;
58992;SDS011;44782;0.000;0.000;2023-03-17T11:17:53;3.20;;;1.70;;
58992;SDS011;44782;0.000;0.000;2023-03-17T11:23:03;1.77;;;1.43;;
58992;SDS011;44782;0.000;0.000;2023-03-17T11:25:25;1.57;;;1.47;;
58992;SDS011;44782;0.000;0.000;2023-03-17T11:32:37;1.83;;;1.50;;
58992;SDS011;44782;0.000;0.000;2023-03-17T11:42:46;2.30;;;1.90;;
58992;SDS011;44782;0.000;0.000;2023-03-17T11:45:36;3.17;;;1.50;;
58992;SDS011;44782;0.000;0.000;2023-03-17T11:50:50;2.83;;;1.50;;
58992;SDS011;44782;0.000;0.000;2023-03-17T11:55:55;2.60;;;1.73;;
58992;SDS011;44782;0.000;0.000;2023-03-17T12:00:51;3.23;;;1.97;;
58992;SDS011;44782;0.000;0.000;2023-03-17T12:03:29;3.03;;;2.07;;
58992;SDS011;44782;0.000;0.000;2023-03-17T12:05:54;2.50;;;1.70;;
58992;SDS011;44782;0.000;0.000;2023-03-17T12:08:16;2.00;;;1.60;;
58992;SDS011;44782;0.000;0.000;2023-03-17T12:10:52;2.80;;;1.70;;
58992;SDS011;44782;0.000;0.000;2023-03-17T12:13:15;2.40;;;1.57;;
58992;SDS011;44782;0.000;0.000;2023-03-17T12:15:41;4.07;;;1.93;;
58992;SDS011;44782;0.000;0.000;2023-03-17T12:18:14;2.90;;;1.70;;
58992;SDS011;44782;0.000;0.000;2023-03-17T12:20:52;3.13;;;1.80;;
58992;SDS011;44782;0.000;0.000;2023-03-17T12:23:17;3.13;;;1.73;;
58992;SDS011;44782;0.000;0.000;2023-03-17T12:26:04;4.23;;;1.63;;
58992;SDS011;44782;0.000;0.000;2023-03-17T12:28:27;4.43;;;1.77;;
58992;SDS011;44782;0.000;0.000;2023-03-17T12:30:49;2.27;;;1.70;;
58992;SDS011;44782;0.000;0.000;2023-03-17T12:33:30;2.47;;;1.77;;
58992;SDS011;44782;0.000;0.000;2023-03-17T12:36:03;2.93;;;1.77;;
58992;SDS011;44782;0.000;0.000;2023-03-17T12:38:36;3.20;;;1.97;;
58992;SDS011;44782;0.000;0.000;2023-03-17T12:43:37;2.63;;;1.83;;
58992;SDS011;44782;0.000;0.000;2023-03-17T12:54:00;3.97;;;2.37;;
58992;SDS011;44782;0.000;0.000;2023-03-17T12:58:43;2.70;;;2.10;;
58992;SDS011;44782;0.000;0.000;2023-03-17T13:03:54;4.37;;;2.60;;
58992;SDS011;44782;0.000;0.000;2023-03-17T13:06:21;3.60;;;2.27;;
58992;SDS011;44782;0.000;0.000;2023-03-17T13:08:39;3.30;;;2.27;;
58992;SDS011;44782;0.000;0.000;2023-03-17T13:16:38;3.67;;;2.30;;
58992;SDS011;44782;0.000;0.000;2023-03-17T13:21:28;2.70;;;2.23;;
58992;SDS011;44782;0.000;0.000;2023-03-17T13:29:21;4.60;;;2.87;;
58992;SDS011;44782;0.000;0.000;2023-03-17T13:31:37;4.17;;;2.43;;
58992;SDS011;44782;0.000;0.000;2023-03-17T13:33:54;5.03;;;2.53;;
58992;SDS011;44782;0.000;0.000;2023-03-17T13:48:54;4.27;;;2.40;;
58992;SDS011;44782;0.000;0.000;2023-03-17T13:53:27;5.73;;;2.40;;
58992;SDS011;44782;0.000;0.000;2023-03-17T13:58:32;5.00;;;2.40;;
58992;SDS011;44782;0.000;0.000;2023-03-17T14:00:53;3.70;;;2.47;;
58992;SDS011;44782;0.000;0.000;2023-03-17T14:03:14;3.43;;;2.10;;
58992;SDS011;44782;0.000;0.000;2023-03-17T14:05:37;3.73;;;2.00;;
58992;SDS011;44782;0.000;0.000;2023-03-17T14:08:04;2.67;;;1.70;;
58992;SDS011;44782;0.000;0.000;2023-03-17T14:10:25;3.20;;;1.83;;
58992;SDS011;44782;0.000;0.000;2023-03-17T14:12:46;3.83;;;1.80;;
58992;SDS011;44782;0.000;0.000;2023-03-17T14:15:25;2.00;;;1.70;;
58992;SDS011;44782;0.000;0.000;2023-03-17T14:17:47;2.20;;;1.60;;
58992;SDS011;44782;0.000;0.000;2023-03-17T14:22:30;2.33;;;1.60;;
58992;SDS011;44782;0.000;0.000;2023-03-17T14:24:49;3.13;;;1.70;;
58992;SDS011;44782;0.000;0.000;2023-03-17T14:27:07;1.77;;;1.50;;
58992;SDS011;44782;0.000;0.000;2023-03-17T14:29:29;3.20;;;1.50;;
58992;SDS011;44782;0.000;0.000;2023-03-17T14:31:47;1.73;;;1.60;;
58992;SDS011;44782;0.000;0.000;2023-03-17T14:34:10;2.13;;;1.60;;
58992;SDS011;44782;0.000;0.000;2023-03-17T14:36:31;1.87;;;1.47;;
58992;SDS011;44782;0.000;0.000;2023-03-17T14:38:49;2.80;;;1.70;;
58992;SDS011;44782;0.000;0.000;2023-03-17T14:43:21;2.33;;;1.60;;
58992;SDS011;44782;0.000;0.000;2023-03-17T14:45:49;2.07;;;1.50;;
58992;SDS011;44782;0.000;0.000;2023-03-17T14:48:09;1.67;;;1.40;;
58992;SDS011;44782;0.000;0.000;2023-03-17T14:50:29;1.67;;;1.40;;
58992;SDS011;44782;0.000;0.000;2023-03-17T14:52:46;1.90;;;1.60;;
58992;SDS011;44782;0.000;0.000;2023-03-17T14:55:04;1.80;;;1.50;;
58992;SDS011;44782;0.000;0.000;2023-03-17T14:57:21;2.03;;;1.50;;
58992;SDS011;44782;0.000;0.000;2023-03-17T14:59:41;1.50;;;1.40;;
58992;SDS011;44782;0.000;0.000;2023-03-17T15:02:51;2.13;;;1.50;;
58992;SDS011;44782;0.000;0.000;2023-03-17T15:05:02;2.13;;;1.63;;
58992;SDS011;44782;0.000;0.000;2023-03-17T15:07:37;1.50;;;1.40;;
58992;SDS011;44782;0.000;0.000;2023-03-17T15:09:58;1.97;;;1.50;;
58992;SDS011;44782;0.000;0.000;2023-03-17T15:12:20;2.37;;;1.80;;
58992;SDS011;44782;0.000;0.000;2023-03-17T15:14:38;2.13;;;1.50;;
58992;SDS011;44782;0.000;0.000;2023-03-17T15:16:55;1.70;;;1.60;;
58992;SDS011;44782;0.000;0.000;2023-03-17T15:19:22;1.60;;;1.50;;
58992;SDS011;44782;0.000;0.000;2023-03-17T15:21:41;1.80;;;1.43;;
58992;SDS011;44782;0.000;0.000;2023-03-17T15:23:57;1.73;;;1.60;;
58992;SDS011;44782;0.000;0.000;2023-03-17T15:26:33;1.40;;;1.30;;
58992;SDS011;44782;0.000;0.000;2023-03-17T15:28:51;1.50;;;1.30;;
58992;SDS011;44782;0.000;0.000;2023-03-17T15:31:10;1.90;;;1.30;;
58992;SDS011;44782;0.000;0.000;2023-03-17T15:35:42;1.67;;;1.50;;
58992;SDS011;44782;0.000;0.000;2023-03-17T15:37:58;2.10;;;1.50;;